createdAt,value
2018-07-13T00:01:30.617Z,13.73
2018-07-13T00:03:59.598Z,11.37
2018-07-13T00:06:28.350Z,12.40
2018-07-13T00:08:57.304Z,13.23
2018-07-13T00:11:25.962Z,14.97
2018-07-13T00:14:06.304Z,14.80
2018-07-13T00:16:35.388Z,11.57
2018-07-13T00:19:04.492Z,16.90
2018-07-13T00:21:33.635Z,15.10
2018-07-13T00:24:02.660Z,13.37
2018-07-13T00:26:31.662Z,14.53
2018-07-13T00:29:00.766Z,12.73
2018-07-13T00:31:29.823Z,15.67
2018-07-13T00:33:59.587Z,16.33
2018-07-13T00:36:29.095Z,15.60
2018-07-13T00:38:59.140Z,22.53
2018-07-13T00:41:28.411Z,18.50
2018-07-13T00:43:57.389Z,18.53
2018-07-13T00:46:26.406Z,16.37
2018-07-13T00:48:55.476Z,22.83
2018-07-13T00:51:24.515Z,16.93
2018-07-13T00:53:53.468Z,23.00
2018-07-13T00:56:22.481Z,21.33
2018-07-13T00:58:51.519Z,22.93
2018-07-13T01:01:20.479Z,24.37
2018-07-13T01:03:49.451Z,19.13
2018-07-13T01:06:18.483Z,20.80
2018-07-13T01:08:47.512Z,24.33
2018-07-13T01:11:16.448Z,22.37
2018-07-13T01:13:45.501Z,19.77
2018-07-13T01:16:14.539Z,23.00
2018-07-13T01:18:43.483Z,23.30
2018-07-13T01:21:12.552Z,22.83
2018-07-13T01:23:41.539Z,24.80
2018-07-13T01:26:10.514Z,23.23
2018-07-13T01:28:39.508Z,26.47
2018-07-13T01:31:08.503Z,23.53
2018-07-13T01:33:37.525Z,20.47
2018-07-13T01:36:06.517Z,23.43
2018-07-13T01:38:36.457Z,23.83
2018-07-13T01:41:05.657Z,25.50
2018-07-13T01:43:34.613Z,25.57
2018-07-13T01:46:03.604Z,24.17
2018-07-13T01:48:32.607Z,24.10
2018-07-13T01:51:01.572Z,23.83
2018-07-13T01:53:30.669Z,21.20
2018-07-13T01:55:59.677Z,24.50
2018-07-13T01:58:28.708Z,26.87
2018-07-13T02:00:57.668Z,28.47
2018-07-13T02:03:26.657Z,28.27
2018-07-13T02:05:55.757Z,27.83
2018-07-13T02:08:24.715Z,23.43
2018-07-13T02:10:53.703Z,25.80
2018-07-13T02:13:22.695Z,28.53
2018-07-13T02:15:51.686Z,30.50
2018-07-13T02:18:20.335Z,28.83
2018-07-13T02:20:50.175Z,33.80
2018-07-13T02:23:19.147Z,31.77
2018-07-13T02:25:48.142Z,37.40
2018-07-13T02:28:17.101Z,34.30
2018-07-13T02:30:46.076Z,31.43
2018-07-13T02:33:14.732Z,31.93
2018-07-13T02:35:43.636Z,34.93
2018-07-13T02:38:12.624Z,34.83
2018-07-13T02:40:41.591Z,33.90
2018-07-13T02:43:10.694Z,29.87
2018-07-13T02:45:39.708Z,37.60
2018-07-13T02:48:08.744Z,38.67
2018-07-13T02:50:37.773Z,32.73
2018-07-13T02:53:06.753Z,35.20
2018-07-13T02:55:35.760Z,37.87
2018-07-13T02:58:04.803Z,35.13
2018-07-13T03:00:33.769Z,32.00
2018-07-13T03:03:02.752Z,35.80
2018-07-13T03:05:31.726Z,37.97
2018-07-13T03:08:00.694Z,33.93
2018-07-13T03:10:29.776Z,36.03
2018-07-13T03:12:58.767Z,36.20
2018-07-13T03:15:27.724Z,37.13
2018-07-13T03:17:56.683Z,39.33
2018-07-13T03:20:26.725Z,46.83
2018-07-13T03:22:55.380Z,40.33
2018-07-13T03:25:24.293Z,38.67
2018-07-13T03:27:53.255Z,38.43
2018-07-13T03:30:22.241Z,38.73
2018-07-13T03:32:51.285Z,35.30
2018-07-13T03:35:20.393Z,39.90
2018-07-13T03:37:49.368Z,33.00
2018-07-13T03:40:18.350Z,33.23
2018-07-13T03:42:47.343Z,37.57
2018-07-13T03:45:16.324Z,35.17
2018-07-13T03:47:45.293Z,35.00
2018-07-13T03:50:14.057Z,29.37
2018-07-13T03:52:42.642Z,31.60
2018-07-13T03:55:11.557Z,31.80
2018-07-13T03:57:40.609Z,28.57
2018-07-13T04:00:09.583Z,28.47
2018-07-13T04:02:38.678Z,31.70
2018-07-13T04:05:07.716Z,35.10
2018-07-13T04:07:36.784Z,29.83
2018-07-13T04:10:05.772Z,25.70
2018-07-13T04:12:34.828Z,31.43
2018-07-13T04:15:03.944Z,29.80
2018-07-13T04:17:33.088Z,32.30
2018-07-13T04:20:02.263Z,35.87
2018-07-13T04:22:31.336Z,35.50
2018-07-13T04:25:00.354Z,29.17
2018-07-13T04:27:29.427Z,30.97
2018-07-13T04:29:58.528Z,27.23
2018-07-13T04:32:27.528Z,25.97
2018-07-13T04:34:56.510Z,29.33
2018-07-13T04:37:25.584Z,24.83
2018-07-13T04:39:54.645Z,29.97
2018-07-13T04:42:23.800Z,32.27
2018-07-13T04:44:53.463Z,25.20
2018-07-13T04:47:22.968Z,24.87
2018-07-13T04:49:53.046Z,29.53
2018-07-13T04:52:21.284Z,28.50
2018-07-13T04:54:50.388Z,28.73
2018-07-13T04:57:19.452Z,24.77
2018-07-13T04:59:48.157Z,23.20
2018-07-13T05:02:17.250Z,27.60
2018-07-13T05:04:46.298Z,27.90
2018-07-13T05:07:15.467Z,21.63
2018-07-13T05:09:44.559Z,26.33
2018-07-13T05:12:14.043Z,30.13
2018-07-13T05:14:43.142Z,22.97
2018-07-13T05:17:12.621Z,24.77
2018-07-13T05:19:41.454Z,25.57
2018-07-13T05:22:10.436Z,24.40
2018-07-13T05:24:39.164Z,26.87
2018-07-13T05:27:08.156Z,24.30
2018-07-13T05:29:37.175Z,28.43
2018-07-13T05:32:06.319Z,24.20
2018-07-13T05:34:35.558Z,25.27
2018-07-13T05:37:04.587Z,27.53
2018-07-13T05:39:33.742Z,25.70
2018-07-13T05:42:02.845Z,24.40
2018-07-13T05:44:32.558Z,23.03
2018-07-13T05:47:01.678Z,18.73
2018-07-13T05:49:30.771Z,22.33
2018-07-13T05:51:59.823Z,21.70
2018-07-13T05:54:28.571Z,21.50
2018-07-13T05:56:57.840Z,23.20
2018-07-13T05:59:27.311Z,18.50
2018-07-13T06:01:56.454Z,17.17
2018-07-13T06:04:25.520Z,23.70
2018-07-13T06:06:54.255Z,23.90
2018-07-13T06:09:23.241Z,18.33
2018-07-13T06:11:52.454Z,22.37
2018-07-13T06:14:21.442Z,27.07
2018-07-13T06:16:50.417Z,19.87
2018-07-13T06:19:19.425Z,22.43
2018-07-13T06:21:48.440Z,19.83
2018-07-13T06:24:17.647Z,17.50
2018-07-13T06:26:46.743Z,18.43
2018-07-13T06:29:15.741Z,19.37
2018-07-13T06:31:44.903Z,19.33
2018-07-13T06:34:13.923Z,19.30
2018-07-13T06:36:42.944Z,21.37
2018-07-13T06:39:12.935Z,16.90
2018-07-13T06:41:41.967Z,17.37
2018-07-13T06:44:11.046Z,16.30
2018-07-13T06:46:43.829Z,15.33
2018-07-13T06:49:12.971Z,19.57
2018-07-13T06:51:42.240Z,17.13
2018-07-13T06:54:11.835Z,18.30
2018-07-13T06:56:41.035Z,15.63
2018-07-13T06:59:14.549Z,16.97
2018-07-13T07:01:44.336Z,15.93
2018-07-13T07:04:22.603Z,21.87
2018-07-13T07:06:51.899Z,15.83
2018-07-13T07:09:21.483Z,19.50
2018-07-13T07:13:08.748Z,18.53
2018-07-13T07:15:38.279Z,19.00
2018-07-13T07:18:07.477Z,19.03
2018-07-13T07:20:36.480Z,18.03
2018-07-13T07:23:05.500Z,17.83
2018-07-13T07:25:34.524Z,18.37
2018-07-13T07:28:03.651Z,21.43
2018-07-13T07:30:32.672Z,21.77
2018-07-13T07:33:01.712Z,16.60
2018-07-13T07:35:30.721Z,15.43
2018-07-13T07:37:59.453Z,15.20
2018-07-13T07:40:28.360Z,16.83
2018-07-13T07:42:57.494Z,17.30
2018-07-13T07:45:26.619Z,16.80
2018-07-13T07:47:55.738Z,20.87
2018-07-13T07:50:24.760Z,18.03
2018-07-13T07:52:53.758Z,17.87
2018-07-13T07:55:22.862Z,15.57
2018-07-13T07:57:51.865Z,17.07
2018-07-13T08:00:20.901Z,15.20
2018-07-13T08:02:50.076Z,18.87
2018-07-13T08:05:18.809Z,17.90
2018-07-13T08:07:47.715Z,15.40
2018-07-13T08:10:16.737Z,14.73
2018-07-13T08:12:45.712Z,11.73
2018-07-13T08:15:14.772Z,12.00
2018-07-13T08:17:43.885Z,12.60
2018-07-13T08:20:18.974Z,14.60
2018-07-13T08:22:52.027Z,18.23
2018-07-13T08:25:21.126Z,16.50
2018-07-13T08:27:51.958Z,13.37
2018-07-13T08:30:28.900Z,10.37
2018-07-13T08:32:57.588Z,13.33
2018-07-13T08:35:26.479Z,13.03
2018-07-13T08:37:56.033Z,11.50
2018-07-13T08:40:25.434Z,10.57
2018-07-13T08:42:55.640Z,13.87
2018-07-13T08:45:24.743Z,10.77
2018-07-13T08:47:53.837Z,13.87
2018-07-13T08:50:22.926Z,11.33
2018-07-13T08:52:52.782Z,12.93
2018-07-13T08:55:22.006Z,14.90
2018-07-13T08:57:51.387Z,12.67
2018-07-13T09:00:20.490Z,11.47
2018-07-13T09:02:49.526Z,12.17
2018-07-13T09:05:18.555Z,15.50
2018-07-13T09:07:47.673Z,15.30
2018-07-13T09:10:16.765Z,12.30
2018-07-13T09:12:45.857Z,11.70
2018-07-13T09:15:15.090Z,12.17
2018-07-13T09:17:44.123Z,14.03
2018-07-13T09:20:13.892Z,9.73
2018-07-13T09:22:42.887Z,12.57
2018-07-13T09:25:12.398Z,10.53
2018-07-13T09:27:42.097Z,10.43
2018-07-13T09:30:12.129Z,10.53
2018-07-13T09:32:41.312Z,13.93
2018-07-13T09:35:10.517Z,15.60
2018-07-13T09:37:39.712Z,9.87
2018-07-13T09:40:08.749Z,10.83
2018-07-13T09:42:37.841Z,13.67
2018-07-13T09:45:06.910Z,10.40
2018-07-13T09:47:36.720Z,10.63
2018-07-13T09:50:05.820Z,10.47
2018-07-13T09:52:34.773Z,11.13
2018-07-13T09:55:03.940Z,10.30
2018-07-13T09:57:32.905Z,11.60
2018-07-13T10:00:01.992Z,12.82
2018-07-13T10:02:31.029Z,9.28
2018-07-13T10:05:00.082Z,7.90
2018-07-13T10:07:29.758Z,8.08
2018-07-13T10:09:58.882Z,10.28
2018-07-13T10:12:28.105Z,10.63
2018-07-13T10:14:57.234Z,8.85
2018-07-13T10:17:26.320Z,10.43
2018-07-13T10:19:55.283Z,9.93
2018-07-13T10:22:27.064Z,8.53
2018-07-13T10:24:56.833Z,10.80
2018-07-13T10:27:29.890Z,10.07
2018-07-13T10:30:00.427Z,10.98
2018-07-13T10:32:29.543Z,9.83
2018-07-13T10:34:58.605Z,12.20
2018-07-13T10:37:29.696Z,10.28
2018-07-13T10:39:58.722Z,10.40
2018-07-13T10:42:27.544Z,15.30
2018-07-13T10:44:56.542Z,12.40
2018-07-13T10:47:25.682Z,13.40
2018-07-13T10:49:54.752Z,12.30
2018-07-13T10:52:23.895Z,12.00
2018-07-13T10:54:52.958Z,13.08
2018-07-13T10:57:22.010Z,12.80
2018-07-13T10:59:51.084Z,13.13
2018-07-13T11:02:20.243Z,14.93
2018-07-13T11:04:49.235Z,12.60
2018-07-13T11:07:18.240Z,13.55
2018-07-13T11:10:28.704Z,11.73
2018-07-13T11:12:57.706Z,13.53
2018-07-13T11:15:26.873Z,12.10
2018-07-13T11:17:56.143Z,12.30
2018-07-13T11:20:25.268Z,13.75
2018-07-13T11:22:54.445Z,13.05
2018-07-13T11:25:23.435Z,12.63
2018-07-13T11:27:52.118Z,10.53
2018-07-13T11:30:20.996Z,11.50
2018-07-13T11:32:50.173Z,9.58
2018-07-13T11:35:19.146Z,11.00
2018-07-13T11:37:48.273Z,11.08
2018-07-13T11:40:17.269Z,9.03
2018-07-13T11:42:46.311Z,10.85
2018-07-13T11:45:15.704Z,11.20
2018-07-13T11:47:44.689Z,10.53
2018-07-13T11:50:13.743Z,8.88
2018-07-13T11:52:42.764Z,9.10
2018-07-13T11:55:11.787Z,8.98
2018-07-13T11:57:40.836Z,12.00
2018-07-13T12:00:10.006Z,8.60
2018-07-13T12:02:39.133Z,7.45
2018-07-13T12:05:08.250Z,11.15
2018-07-13T12:07:37.275Z,8.30
2018-07-13T12:10:06.260Z,8.08
2018-07-13T12:12:35.358Z,9.13
2018-07-13T12:15:04.345Z,7.37
2018-07-13T12:17:33.412Z,8.05
2018-07-13T12:20:02.379Z,8.63
2018-07-13T12:22:31.410Z,7.90
2018-07-13T12:25:01.240Z,9.90
2018-07-13T12:27:32.124Z,9.10
2018-07-13T12:30:01.101Z,8.90
2018-07-13T12:32:30.175Z,9.15
2018-07-13T12:34:59.359Z,10.13
2018-07-13T12:37:28.465Z,10.23
2018-07-13T12:39:57.578Z,9.50
2018-07-13T12:42:26.558Z,12.27
2018-07-13T12:44:55.533Z,11.13
2018-07-13T12:47:24.242Z,9.70
2018-07-13T12:49:53.106Z,13.20
2018-07-13T12:52:22.150Z,9.23
2018-07-13T12:54:51.204Z,10.87
2018-07-13T12:57:19.901Z,11.17
2018-07-13T12:59:49.028Z,9.47
2018-07-13T13:02:18.046Z,12.83
2018-07-13T13:04:47.049Z,10.10
2018-07-13T13:07:16.094Z,14.20
2018-07-13T13:09:45.116Z,13.70
2018-07-13T13:12:14.107Z,11.33
2018-07-13T13:14:43.254Z,10.37
2018-07-13T13:17:12.297Z,12.63
2018-07-13T13:19:41.290Z,11.70
2018-07-13T13:22:10.311Z,10.00
2018-07-13T13:24:39.347Z,10.40
2018-07-13T13:27:08.468Z,10.03
2018-07-13T13:29:37.550Z,8.60
2018-07-13T13:32:06.551Z,10.00
2018-07-13T13:34:36.088Z,7.53
2018-07-13T13:37:05.092Z,9.43
2018-07-13T13:39:34.129Z,11.53
2018-07-13T13:42:03.281Z,10.37
2018-07-13T13:44:32.265Z,7.97
2018-07-13T13:47:01.255Z,9.20
2018-07-13T13:49:30.312Z,9.87
2018-07-13T13:51:59.292Z,11.03
2018-07-13T13:54:28.327Z,6.93
2018-07-13T13:56:57.349Z,10.97
2018-07-13T13:59:26.046Z,10.60
2018-07-13T14:01:55.076Z,11.00
2018-07-13T14:04:24.098Z,10.07
2018-07-13T14:06:53.056Z,10.83
2018-07-13T14:09:22.284Z,9.43
2018-07-13T14:11:51.191Z,10.20
2018-07-13T14:14:20.269Z,10.80
2018-07-13T14:16:49.331Z,9.30
2018-07-13T14:19:18.325Z,7.63
2018-07-13T14:21:47.432Z,15.13
2018-07-13T14:24:16.548Z,9.90
2018-07-13T14:26:45.548Z,14.27
2018-07-13T14:29:15.115Z,10.97
2018-07-13T14:31:44.137Z,9.83
2018-07-13T14:34:13.196Z,9.80
2018-07-13T14:36:42.196Z,8.50
2018-07-13T14:39:11.535Z,8.07
2018-07-13T14:41:40.560Z,10.43
2018-07-13T14:44:09.619Z,10.77
2018-07-13T14:46:38.715Z,9.50
2018-07-13T14:49:07.748Z,9.93
2018-07-13T14:51:36.717Z,8.10
2018-07-13T14:54:06.043Z,10.57
2018-07-13T14:56:35.044Z,8.43
2018-07-13T14:59:04.090Z,8.43
2018-07-13T15:01:33.071Z,12.00
2018-07-13T15:04:02.115Z,8.87
2018-07-13T15:06:31.291Z,8.93
2018-07-13T15:09:00.471Z,10.10
2018-07-13T15:11:29.495Z,8.40
2018-07-13T15:13:58.513Z,6.57
2018-07-13T15:16:27.497Z,11.23
2018-07-13T15:18:56.604Z,7.87
2018-07-13T15:21:25.658Z,9.50
2018-07-13T15:23:54.792Z,8.27
2018-07-13T15:26:23.847Z,9.23
2018-07-13T15:28:53.448Z,8.40
2018-07-13T15:31:22.629Z,12.20
2018-07-13T15:33:51.705Z,11.50
2018-07-13T15:36:20.902Z,12.20
2018-07-13T15:38:49.751Z,7.63
2018-07-13T15:41:18.823Z,8.50
2018-07-13T15:43:47.791Z,12.77
2018-07-13T15:46:16.468Z,11.27
2018-07-13T15:48:45.346Z,11.87
2018-07-13T15:51:14.325Z,8.53
2018-07-13T15:53:43.460Z,12.50
2018-07-13T15:56:12.616Z,10.00
2018-07-13T15:58:41.638Z,12.27
2018-07-13T16:01:11.493Z,10.97
2018-07-13T16:03:40.524Z,9.50
2018-07-13T16:06:09.601Z,7.43
2018-07-13T16:08:38.705Z,9.03
2018-07-13T16:11:07.790Z,10.47
2018-07-13T16:13:36.772Z,7.47
2018-07-13T16:16:05.849Z,8.33
2018-07-13T16:18:34.885Z,9.63
2018-07-13T16:21:03.893Z,10.67
2018-07-13T16:23:32.959Z,7.70
2018-07-13T16:26:01.975Z,8.63
2018-07-13T16:28:31.054Z,7.90
2018-07-13T16:31:00.014Z,9.73
2018-07-13T16:33:28.975Z,13.43
2018-07-13T16:35:58.536Z,12.37
2018-07-13T16:38:27.626Z,8.43
2018-07-13T16:40:56.583Z,10.73
2018-07-13T16:43:25.680Z,10.10
2018-07-13T16:45:54.658Z,9.83
2018-07-13T16:48:23.642Z,10.17
2018-07-13T16:50:52.649Z,9.90
2018-07-13T16:53:21.619Z,9.60
2018-07-13T16:55:50.630Z,9.87
2018-07-13T16:58:19.627Z,10.73
2018-07-13T17:00:48.655Z,10.43
2018-07-13T17:03:17.763Z,6.63
2018-07-13T17:05:46.658Z,11.00
2018-07-13T17:08:15.762Z,11.10
2018-07-13T17:10:44.815Z,12.47
2018-07-13T17:13:13.787Z,14.17
2018-07-13T17:15:42.734Z,9.90
2018-07-13T17:18:12.451Z,10.97
2018-07-13T17:20:41.372Z,8.30
2018-07-13T17:23:10.383Z,11.30
2018-07-13T17:25:39.348Z,12.70
2018-07-13T17:28:08.353Z,10.00
2018-07-13T17:30:37.543Z,8.13
2018-07-13T17:33:06.540Z,12.77
2018-07-13T17:35:35.615Z,10.13
2018-07-13T17:38:04.649Z,9.07
2018-07-13T17:40:33.801Z,9.27
2018-07-13T17:43:02.839Z,11.83
2018-07-13T17:45:31.705Z,10.90
2018-07-13T17:48:00.736Z,10.67
2018-07-13T17:50:30.356Z,7.37
2018-07-13T17:52:59.365Z,9.73
2018-07-13T17:55:29.287Z,8.97
2018-07-13T17:57:58.314Z,14.03
2018-07-13T18:00:27.335Z,9.90
2018-07-13T18:02:56.333Z,11.17
2018-07-13T18:05:25.357Z,9.90
2018-07-13T18:07:54.331Z,8.97
2018-07-13T18:10:23.536Z,10.93
2018-07-13T18:12:53.578Z,10.47
2018-07-13T18:15:22.555Z,11.73
2018-07-13T18:17:52.820Z,9.30
2018-07-13T18:20:22.452Z,10.40
2018-07-13T18:22:51.703Z,9.63
2018-07-13T18:25:20.669Z,11.63
2018-07-13T18:27:49.651Z,9.80
2018-07-13T18:30:18.633Z,10.57
2018-07-13T18:32:47.620Z,9.00
2018-07-13T18:35:16.619Z,8.60
2018-07-13T18:37:45.673Z,10.00
2018-07-13T18:40:14.667Z,9.63
2018-07-13T18:42:43.672Z,9.90
2018-07-13T18:45:12.733Z,8.17
2018-07-13T18:47:41.735Z,7.83
2018-07-13T18:50:10.704Z,9.97
2018-07-13T18:52:39.690Z,11.17
2018-07-13T18:55:08.715Z,8.40
2018-07-13T18:57:37.748Z,8.03
2018-07-13T19:00:06.873Z,7.40
2018-07-13T19:02:35.816Z,7.10
2018-07-13T19:05:04.499Z,10.60
2018-07-13T19:07:33.104Z,6.47
2018-07-13T19:10:02.089Z,9.17
2018-07-13T19:12:31.117Z,8.27
2018-07-13T19:15:00.100Z,9.13
2018-07-13T19:17:29.203Z,9.83
2018-07-13T19:19:58.192Z,9.47
2018-07-13T19:22:27.196Z,9.47
2018-07-13T19:24:56.283Z,8.40
2018-07-13T19:27:25.264Z,13.50
2018-07-13T19:29:54.271Z,9.27
2018-07-13T19:32:22.971Z,8.63
2018-07-13T19:34:51.878Z,8.87
2018-07-13T19:37:20.869Z,13.33
2018-07-13T19:39:49.891Z,8.57
2018-07-13T19:42:18.917Z,11.37
2018-07-13T19:44:47.891Z,8.60
2018-07-13T19:47:16.872Z,8.40
2018-07-13T19:49:45.886Z,8.03
2018-07-13T19:52:14.843Z,12.53
2018-07-13T19:54:43.834Z,7.73
2018-07-13T19:57:12.952Z,8.57
2018-07-13T19:59:42.271Z,7.83
2018-07-13T20:02:11.229Z,8.47
2018-07-13T20:04:39.934Z,9.13
2018-07-13T20:07:08.831Z,8.53
2018-07-13T20:09:37.926Z,8.50
2018-07-13T20:12:07.061Z,10.37
2018-07-13T20:14:36.163Z,7.83
2018-07-13T20:17:05.302Z,6.30
2018-07-13T20:19:34.300Z,6.70
2018-07-13T20:22:04.119Z,7.37
2018-07-13T20:24:33.127Z,8.50
2018-07-13T20:27:01.833Z,10.17
2018-07-13T20:29:30.687Z,6.23
2018-07-13T20:31:59.370Z,8.43
2018-07-13T20:34:28.357Z,8.30
2018-07-13T20:36:57.387Z,8.20
2018-07-13T20:39:26.412Z,10.97
2018-07-13T20:41:55.490Z,10.27
2018-07-13T20:44:24.543Z,6.80
2018-07-13T20:46:53.633Z,8.90
2018-07-13T20:49:22.603Z,12.33
2018-07-13T20:51:51.606Z,7.43
2018-07-13T20:54:20.778Z,6.30
2018-07-13T20:56:49.741Z,6.90
2018-07-13T20:59:19.002Z,10.07
2018-07-13T21:01:47.986Z,8.50
2018-07-13T21:04:16.944Z,8.30
2018-07-13T21:06:45.894Z,9.83
2018-07-13T21:09:15.055Z,11.43
2018-07-13T21:11:44.003Z,8.07
2018-07-13T21:14:13.113Z,9.20
2018-07-13T21:16:42.068Z,7.97
2018-07-13T21:19:11.254Z,8.67
2018-07-13T21:21:40.292Z,6.77
2018-07-13T21:24:09.265Z,6.40
2018-07-13T21:26:38.536Z,11.73
2018-07-13T21:29:07.523Z,9.77
2018-07-13T21:31:36.525Z,8.03
2018-07-13T21:34:05.892Z,8.00
2018-07-13T21:36:34.894Z,12.50
2018-07-13T21:39:04.032Z,7.97
2018-07-13T21:41:33.656Z,9.17
2018-07-13T21:44:02.646Z,8.27
2018-07-13T21:46:31.664Z,9.40
2018-07-13T21:49:00.672Z,8.57
2018-07-13T21:51:29.992Z,9.33
2018-07-13T21:53:58.995Z,7.63
2018-07-13T21:56:28.019Z,9.67
2018-07-13T21:58:57.079Z,8.67
2018-07-13T22:01:26.118Z,8.23
2018-07-13T22:03:55.102Z,10.23
2018-07-13T22:06:24.181Z,10.53
2018-07-13T22:08:53.198Z,9.40
2018-07-13T22:11:22.344Z,11.50
2018-07-13T22:13:51.353Z,11.07
2018-07-13T22:16:20.375Z,10.53
2018-07-13T22:18:49.361Z,9.07
2018-07-13T22:21:18.368Z,10.23
2018-07-13T22:23:47.459Z,15.10
2018-07-13T22:26:16.399Z,12.43
2018-07-13T22:28:45.519Z,11.93
2018-07-13T22:31:14.549Z,9.27
2018-07-13T22:33:43.854Z,11.63
2018-07-13T22:36:12.808Z,13.97
2018-07-13T22:38:41.827Z,12.30
2018-07-13T22:41:10.926Z,11.07
2018-07-13T22:43:39.941Z,11.70
2018-07-13T22:46:09.033Z,10.13
2018-07-13T22:48:38.064Z,10.60
2018-07-13T22:51:07.119Z,10.43
2018-07-13T22:53:36.139Z,10.03
2018-07-13T22:56:05.435Z,13.27
2018-07-13T22:58:34.565Z,12.90
2018-07-13T23:01:03.585Z,12.20
2018-07-13T23:03:32.311Z,14.40
2018-07-13T23:06:02.140Z,11.10
2018-07-13T23:08:31.220Z,12.43
2018-07-13T23:11:00.890Z,12.90
2018-07-13T23:13:29.947Z,12.53
2018-07-13T23:15:58.984Z,12.53
2018-07-13T23:18:28.226Z,17.97
2018-07-13T23:20:57.376Z,13.00
2018-07-13T23:23:26.346Z,13.30
2018-07-13T23:25:55.312Z,13.23
2018-07-13T23:28:24.454Z,11.13
2018-07-13T23:30:53.420Z,17.37
2018-07-13T23:33:22.862Z,12.93
2018-07-13T23:35:51.855Z,13.57
2018-07-13T23:38:20.822Z,20.47
2018-07-13T23:40:49.918Z,11.97
2018-07-13T23:43:19.120Z,14.60
2018-07-13T23:45:48.186Z,14.13
2018-07-13T23:48:17.208Z,16.13
2018-07-13T23:50:46.203Z,19.20
2018-07-13T23:53:15.192Z,15.40
2018-07-13T23:55:44.187Z,13.57
2018-07-13T23:58:13.173Z,15.53
